sensor_id;sensor_type;location;lat;lon;timestamp;P1;P2;P0
70520;PMS5003;58442;52.716;23.560;2022-09-16T00:00:22;7;7;6
70520;PMS5003;58442;52.716;23.560;2022-09-16T00:02:24;8;8;6
70520;PMS5003;58442;52.716;23.560;2022-09-16T00:04:25;8;8;7
70520;PMS5003;58442;52.716;23.560;2022-09-16T00:06:27;8;8;7
70520;PMS5003;58442;52.716;23.560;2022-09-16T00:08:37;3;3;3
70520;PMS5003;58442;52.716;23.560;2022-09-16T00:10:39;6;6;5
70520;PMS5003;58442;52.716;23.560;2022-09-16T00:12:43;4;4;3
70520;PMS5003;58442;52.716;23.560;2022-09-16T00:14:44;5;5;4
70520;PMS5003;58442;52.716;23.560;2022-09-16T00:16:52;5;5;5
70520;PMS5003;58442;52.716;23.560;2022-09-16T00:18:53;4;4;4
70520;PMS5003;58442;52.716;23.560;2022-09-16T00:20:59;8;8;6
70520;PMS5003;58442;52.716;23.560;2022-09-16T00:23:00;8;8;6
70520;PMS5003;58442;52.716;23.560;2022-09-16T00:25:07;3;3;3
70520;PMS5003;58442;52.716;23.560;2022-09-16T00:27:09;5;5;4
70520;PMS5003;58442;52.716;23.560;2022-09-16T00:29:10;5;5;4
70520;PMS5003;58442;52.716;23.560;2022-09-16T00:31:11;5;5;4
70520;PMS5003;58442;52.716;23.560;2022-09-16T00:33:21;6;6;6
70520;PMS5003;58442;52.716;23.560;2022-09-16T00:35:22;6;6;5
70520;PMS5003;58442;52.716;23.560;2022-09-16T00:37:23;5;5;5
70520;PMS5003;58442;52.716;23.560;2022-09-16T00:39:25;5;5;3
70520;PMS5003;58442;52.716;23.560;2022-09-16T00:41:36;6;6;5
70520;PMS5003;58442;52.716;23.560;2022-09-16T00:45:50;5;4;4
70520;PMS5003;58442;52.716;23.560;2022-09-16T00:48:05;4;4;3
70520;PMS5003;58442;52.716;23.560;2022-09-16T00:52:22;5;5;4
70520;PMS5003;58442;52.716;23.560;2022-09-16T00:54:23;5;5;5
70520;PMS5003;58442;52.716;23.560;2022-09-16T00:56:25;4;4;4
70520;PMS5003;58442;52.716;23.560;2022-09-16T01:00:43;5;5;4
70520;PMS5003;58442;52.716;23.560;2022-09-16T01:02:51;5;5;4
70520;PMS5003;58442;52.716;23.560;2022-09-16T01:04:56;5;5;5
70520;PMS5003;58442;52.716;23.560;2022-09-16T01:07:02;4;4;4
70520;PMS5003;58442;52.716;23.560;2022-09-16T01:09:03;6;6;4
70520;PMS5003;58442;52.716;23.560;2022-09-16T01:11:06;5;5;3
70520;PMS5003;58442;52.716;23.560;2022-09-16T01:13:07;4;4;4
70520;PMS5003;58442;52.716;23.560;2022-09-16T01:15:12;5;5;4
70520;PMS5003;58442;52.716;23.560;2022-09-16T01:19:36;5;5;4
70520;PMS5003;58442;52.716;23.560;2022-09-16T01:21:47;5;5;4
70520;PMS5003;58442;52.716;23.560;2022-09-16T01:24:08;6;5;5
70520;PMS5003;58442;52.716;23.560;2022-09-16T01:43:05;4;4;3
70520;PMS5003;58442;52.716;23.560;2022-09-16T01:47:42;4;4;4
70520;PMS5003;58442;52.716;23.560;2022-09-16T01:54:47;6;6;4
70520;PMS5003;58442;52.716;23.560;2022-09-16T01:59:30;6;6;4
70520;PMS5003;58442;52.716;23.560;2022-09-16T02:01:53;3;3;3
70520;PMS5003;58442;52.716;23.560;2022-09-16T02:04:17;6;6;5
70520;PMS5003;58442;52.716;23.560;2022-09-16T02:06:18;4;4;2
70520;PMS5003;58442;52.716;23.560;2022-09-16T02:08:34;7;7;6
70520;PMS5003;58442;52.716;23.560;2022-09-16T02:10:37;3;3;2
70520;PMS5003;58442;52.716;23.560;2022-09-16T02:12:43;3;3;3
70520;PMS5003;58442;52.716;23.560;2022-09-16T02:14:48;5;5;4
70520;PMS5003;58442;52.716;23.560;2022-09-16T02:16:58;7;7;5
70520;PMS5003;58442;52.716;23.560;2022-09-16T02:19:07;5;5;5
70520;PMS5003;58442;52.716;23.560;2022-09-16T02:21:12;9;9;5
70520;PMS5003;58442;52.716;23.560;2022-09-16T02:23:19;7;7;5
70520;PMS5003;58442;52.716;23.560;2022-09-16T02:25:27;5;5;4
70520;PMS5003;58442;52.716;23.560;2022-09-16T02:27:33;8;8;5
70520;PMS5003;58442;52.716;23.560;2022-09-16T02:29:40;6;6;5
70520;PMS5003;58442;52.716;23.560;2022-09-16T02:31:46;4;4;3
70520;PMS5003;58442;52.716;23.560;2022-09-16T02:33:54;6;6;4
70520;PMS5003;58442;52.716;23.560;2022-09-16T02:36:04;6;6;4
70520;PMS5003;58442;52.716;23.560;2022-09-16T02:38:13;5;5;3
70520;PMS5003;58442;52.716;23.560;2022-09-16T02:40:23;7;7;6
70520;PMS5003;58442;52.716;23.560;2022-09-16T02:42:30;6;6;4
70520;PMS5003;58442;52.716;23.560;2022-09-16T02:45:22;6;6;5
70520;PMS5003;58442;52.716;23.560;2022-09-16T02:47:51;6;6;5
70520;PMS5003;58442;52.716;23.560;2022-09-16T02:52:05;5;5;4
70520;PMS5003;58442;52.716;23.560;2022-09-16T02:58:41;5;5;4
70520;PMS5003;58442;52.716;23.560;2022-09-16T03:00:44;5;5;4
70520;PMS5003;58442;52.716;23.560;2022-09-16T03:02:47;4;4;4
70520;PMS5003;58442;52.716;23.560;2022-09-16T03:04:49;8;8;6
70520;PMS5003;58442;52.716;23.560;2022-09-16T03:06:56;6;6;5
70520;PMS5003;58442;52.716;23.560;2022-09-16T03:08:58;5;5;5
70520;PMS5003;58442;52.716;23.560;2022-09-16T03:11:07;8;7;6
70520;PMS5003;58442;52.716;23.560;2022-09-16T03:13:11;4;4;4
70520;PMS5003;58442;52.716;23.560;2022-09-16T03:15:30;5;5;3
70520;PMS5003;58442;52.716;23.560;2022-09-16T03:17:35;5;5;4
70520;PMS5003;58442;52.716;23.560;2022-09-16T03:22:34;4;4;3
70520;PMS5003;58442;52.716;23.560;2022-09-16T03:27:00;4;4;3
70520;PMS5003;58442;52.716;23.560;2022-09-16T03:36:25;5;5;4
70520;PMS5003;58442;52.716;23.560;2022-09-16T03:38:33;5;5;2
70520;PMS5003;58442;52.716;23.560;2022-09-16T03:40:36;6;6;5
70520;PMS5003;58442;52.716;23.560;2022-09-16T03:42:38;4;4;3
70520;PMS5003;58442;52.716;23.560;2022-09-16T03:44:40;3;3;3
70520;PMS5003;58442;52.716;23.560;2022-09-16T03:46:42;4;4;3
70520;PMS5003;58442;52.716;23.560;2022-09-16T03:48:43;4;4;3
70520;PMS5003;58442;52.716;23.560;2022-09-16T03:50:44;4;4;4
70520;PMS5003;58442;52.716;23.560;2022-09-16T03:52:55;3;3;2
70520;PMS5003;58442;52.716;23.560;2022-09-16T03:54:56;4;4;4
70520;PMS5003;58442;52.716;23.560;2022-09-16T03:56:57;4;4;4
70520;PMS5003;58442;52.716;23.560;2022-09-16T03:58:59;4;4;4
70520;PMS5003;58442;52.716;23.560;2022-09-16T04:01:10;3;3;3
70520;PMS5003;58442;52.716;23.560;2022-09-16T04:03:11;4;4;2
70520;PMS5003;58442;52.716;23.560;2022-09-16T04:05:12;6;6;4
70520;PMS5003;58442;52.716;23.560;2022-09-16T04:07:13;3;3;3
70520;PMS5003;58442;52.716;23.560;2022-09-16T04:09:25;2;2;2
70520;PMS5003;58442;52.716;23.560;2022-09-16T04:11:26;4;4;3
70520;PMS5003;58442;52.716;23.560;2022-09-16T04:13:32;3;3;2
70520;PMS5003;58442;52.716;23.560;2022-09-16T04:15:35;5;5;5
70520;PMS5003;58442;52.716;23.560;2022-09-16T04:17:40;4;4;4
70520;PMS5003;58442;52.716;23.560;2022-09-16T04:19:41;3;3;3
70520;PMS5003;58442;52.716;23.560;2022-09-16T04:21:42;4;4;3
70520;PMS5003;58442;52.716;23.560;2022-09-16T04:23:43;2;2;2
70520;PMS5003;58442;52.716;23.560;2022-09-16T04:25:55;4;4;3
70520;PMS5003;58442;52.716;23.560;2022-09-16T04:27:57;5;5;4
70520;PMS5003;58442;52.716;23.560;2022-09-16T04:29:58;3;3;3
70520;PMS5003;58442;52.716;23.560;2022-09-16T04:32:00;3;3;3
70520;PMS5003;58442;52.716;23.560;2022-09-16T04:34:09;3;3;3
70520;PMS5003;58442;52.716;23.560;2022-09-16T04:36:12;3;3;2
70520;PMS5003;58442;52.716;23.560;2022-09-16T04:38:18;4;4;3
70520;PMS5003;58442;52.716;23.560;2022-09-16T04:40:19;5;5;4
70520;PMS5003;58442;52.716;23.560;2022-09-16T04:42:24;3;3;3
70520;PMS5003;58442;52.716;23.560;2022-09-16T04:44:25;4;4;3
70520;PMS5003;58442;52.716;23.560;2022-09-16T04:46:29;3;3;3
70520;PMS5003;58442;52.716;23.560;2022-09-16T04:48:31;4;4;3
70520;PMS5003;58442;52.716;23.560;2022-09-16T04:50:39;2;2;2
70520;PMS5003;58442;52.716;23.560;2022-09-16T04:52:41;4;4;3
70520;PMS5003;58442;52.716;23.560;2022-09-16T04:54:43;3;3;3
70520;PMS5003;58442;52.716;23.560;2022-09-16T04:56:44;4;4;3
70520;PMS5003;58442;52.716;23.560;2022-09-16T04:58:55;4;4;2
70520;PMS5003;58442;52.716;23.560;2022-09-16T05:03:06;4;4;3
70520;PMS5003;58442;52.716;23.560;2022-09-16T05:05:08;6;6;5
70520;PMS5003;58442;52.716;23.560;2022-09-16T05:07:10;5;5;4
70520;PMS5003;58442;52.716;23.560;2022-09-16T05:09:11;4;4;4
70520;PMS5003;58442;52.716;23.560;2022-09-16T05:11:15;3;3;2
70520;PMS5003;58442;52.716;23.560;2022-09-16T05:13:18;6;6;4
70520;PMS5003;58442;52.716;23.560;2022-09-16T05:15:25;6;6;4
70520;PMS5003;58442;52.716;23.560;2022-09-16T05:17:28;5;5;4
70520;PMS5003;58442;52.716;23.560;2022-09-16T05:19:30;5;5;4
70520;PMS5003;58442;52.716;23.560;2022-09-16T05:21:32;5;5;4
70520;PMS5003;58442;52.716;23.560;2022-09-16T05:23:40;3;3;3
70520;PMS5003;58442;52.716;23.560;2022-09-16T05:25:41;5;5;4
70520;PMS5003;58442;52.716;23.560;2022-09-16T05:27:42;6;6;4
70520;PMS5003;58442;52.716;23.560;2022-09-16T05:29:43;4;4;3
70520;PMS5003;58442;52.716;23.560;2022-09-16T05:31:55;5;5;4
70520;PMS5003;58442;52.716;23.560;2022-09-16T05:33:58;3;3;3
70520;PMS5003;58442;52.716;23.560;2022-09-16T05:36:05;3;3;2
70520;PMS5003;58442;52.716;23.560;2022-09-16T05:38:07;5;5;3
70520;PMS5003;58442;52.716;23.560;2022-09-16T05:40:09;4;4;4
70520;PMS5003;58442;52.716;23.560;2022-09-16T05:42:11;5;5;4
70520;PMS5003;58442;52.716;23.560;2022-09-16T05:44:12;3;3;3
70520;PMS5003;58442;52.716;23.560;2022-09-16T05:46:17;3;3;3
70520;PMS5003;58442;52.716;23.560;2022-09-16T05:48:24;5;5;4
70520;PMS5003;58442;52.716;23.560;2022-09-16T05:50:26;6;6;5
70520;PMS5003;58442;52.716;23.560;2022-09-16T05:52:27;7;7;6
70520;PMS5003;58442;52.716;23.560;2022-09-16T05:54:28;6;6;5
70520;PMS5003;58442;52.716;23.560;2022-09-16T05:56:39;5;5;4
70520;PMS5003;58442;52.716;23.560;2022-09-16T05:58:41;5;5;4
70520;PMS5003;58442;52.716;23.560;2022-09-16T06:00:43;5;5;4
70520;PMS5003;58442;52.716;23.560;2022-09-16T06:02:45;5;5;3
70520;PMS5003;58442;52.716;23.560;2022-09-16T06:04:54;6;6;4
70520;PMS5003;58442;52.716;23.560;2022-09-16T06:06:55;3;3;3
70520;PMS5003;58442;52.716;23.560;2022-09-16T06:08:57;4;4;3
70520;PMS5003;58442;52.716;23.560;2022-09-16T06:11:03;4;4;2
70520;PMS5003;58442;52.716;23.560;2022-09-16T06:13:09;2;2;2
70520;PMS5003;58442;52.716;23.560;2022-09-16T06:15:10;5;5;4
70520;PMS5003;58442;52.716;23.560;2022-09-16T06:17:11;5;5;4
70520;PMS5003;58442;52.716;23.560;2022-09-16T06:19:16;5;5;3
70520;PMS5003;58442;52.716;23.560;2022-09-16T06:21:24;6;6;4
70520;PMS5003;58442;52.716;23.560;2022-09-16T06:23:25;4;4;3
70520;PMS5003;58442;52.716;23.560;2022-09-16T06:25:26;5;5;4
70520;PMS5003;58442;52.716;23.560;2022-09-16T06:27:27;3;3;2
70520;PMS5003;58442;52.716;23.560;2022-09-16T06:29:39;3;3;2
70520;PMS5003;58442;52.716;23.560;2022-09-16T06:31:40;6;6;5
70520;PMS5003;58442;52.716;23.560;2022-09-16T06:33:42;4;4;4
70520;PMS5003;58442;52.716;23.560;2022-09-16T06:35:43;6;6;4
70520;PMS5003;58442;52.716;23.560;2022-09-16T06:37:53;4;4;3
70520;PMS5003;58442;52.716;23.560;2022-09-16T06:39:54;4;4;3
70520;PMS5003;58442;52.716;23.560;2022-09-16T06:41:55;5;5;5
70520;PMS5003;58442;52.716;23.560;2022-09-16T06:43:56;9;9;7
70520;PMS5003;58442;52.716;23.560;2022-09-16T06:46:09;4;4;3
70520;PMS5003;58442;52.716;23.560;2022-09-16T06:48:15;5;5;3
70520;PMS5003;58442;52.716;23.560;2022-09-16T06:50:16;7;6;3
70520;PMS5003;58442;52.716;23.560;2022-09-16T06:52:17;2;2;2
70520;PMS5003;58442;52.716;23.560;2022-09-16T06:54:23;6;6;4
70520;PMS5003;58442;52.716;23.560;2022-09-16T06:56:24;4;4;3
70520;PMS5003;58442;52.716;23.560;2022-09-16T06:58:26;2;2;2
70520;PMS5003;58442;52.716;23.560;2022-09-16T07:00:29;1;1;0
70520;PMS5003;58442;52.716;23.560;2022-09-16T07:02:38;2;2;2
70520;PMS5003;58442;52.716;23.560;2022-09-16T07:04:39;2;2;0
70520;PMS5003;58442;52.716;23.560;2022-09-16T07:06:40;3;3;3
70520;PMS5003;58442;52.716;23.560;2022-09-16T07:08:41;4;4;3
70520;PMS5003;58442;52.716;23.560;2022-09-16T07:13:14;11;11;5
70520;PMS5003;58442;52.716;23.560;2022-09-16T07:15:15;17;17;12
70520;PMS5003;58442;52.716;23.560;2022-09-16T07:17:16;3;3;3
70520;PMS5003;58442;52.716;23.560;2022-09-16T07:19:17;3;3;3
70520;PMS5003;58442;52.716;23.560;2022-09-16T07:21:29;5;4;4
70520;PMS5003;58442;52.716;23.560;2022-09-16T07:23:30;2;2;2
70520;PMS5003;58442;52.716;23.560;2022-09-16T07:25:32;3;3;3
70520;PMS5003;58442;52.716;23.560;2022-09-16T07:27:34;1;1;0
70520;PMS5003;58442;52.716;23.560;2022-09-16T07:29:43;4;4;4
70520;PMS5003;58442;52.716;23.560;2022-09-16T07:31:44;7;7;5
70520;PMS5003;58442;52.716;23.560;2022-09-16T07:33:47;3;3;2
70520;PMS5003;58442;52.716;23.560;2022-09-16T07:35:50;7;7;6
70520;PMS5003;58442;52.716;23.560;2022-09-16T07:37:59;3;3;2
70520;PMS5003;58442;52.716;23.560;2022-09-16T07:40:00;43;37;25
70520;PMS5003;58442;52.716;23.560;2022-09-16T07:42:01;59;48;31
70520;PMS5003;58442;52.716;23.560;2022-09-16T07:44:04;9;9;7
70520;PMS5003;58442;52.716;23.560;2022-09-16T07:46:14;3;3;3
70520;PMS5003;58442;52.716;23.560;2022-09-16T07:48:16;4;4;3
70520;PMS5003;58442;52.716;23.560;2022-09-16T07:50:18;16;16;12
70520;PMS5003;58442;52.716;23.560;2022-09-16T07:52:19;12;12;9
70520;PMS5003;58442;52.716;23.560;2022-09-16T07:54:28;5;5;4
70520;PMS5003;58442;52.716;23.560;2022-09-16T07:56:31;15;15;10
70520;PMS5003;58442;52.716;23.560;2022-09-16T07:58:33;11;11;8
70520;PMS5003;58442;52.716;23.560;2022-09-16T08:00:35;10;10;7
70520;PMS5003;58442;52.716;23.560;2022-09-16T08:02:43;23;23;14
70520;PMS5003;58442;52.716;23.560;2022-09-16T08:04:44;15;15;8
70520;PMS5003;58442;52.716;23.560;2022-09-16T08:06:45;7;7;5
70520;PMS5003;58442;52.716;23.560;2022-09-16T08:08:47;14;14;10
70520;PMS5003;58442;52.716;23.560;2022-09-16T08:10:58;3;3;3
70520;PMS5003;58442;52.716;23.560;2022-09-16T08:13:00;2;2;2
70520;PMS5003;58442;52.716;23.560;2022-09-16T08:15:01;11;11;9
70520;PMS5003;58442;52.716;23.560;2022-09-16T08:17:02;16;15;11
70520;PMS5003;58442;52.716;23.560;2022-09-16T08:19:12;6;6;6
70520;PMS5003;58442;52.716;23.560;2022-09-16T08:21:14;8;8;6
70520;PMS5003;58442;52.716;23.560;2022-09-16T08:23:17;4;4;3
70520;PMS5003;58442;52.716;23.560;2022-09-16T08:25:19;11;11;8
70520;PMS5003;58442;52.716;23.560;2022-09-16T08:27:27;8;6;4
70520;PMS5003;58442;52.716;23.560;2022-09-16T08:29:28;9;9;7
70520;PMS5003;58442;52.716;23.560;2022-09-16T08:31:29;3;3;3
70520;PMS5003;58442;52.716;23.560;2022-09-16T08:33:30;2;2;2
70520;PMS5003;58442;52.716;23.560;2022-09-16T08:35:42;5;5;4
70520;PMS5003;58442;52.716;23.560;2022-09-16T08:37:43;11;11;9
70520;PMS5003;58442;52.716;23.560;2022-09-16T08:39:45;3;1;1
70520;PMS5003;58442;52.716;23.560;2022-09-16T08:51:01;1;1;1
70520;PMS5003;58442;52.716;23.560;2022-09-16T08:53:08;3;3;2
70520;PMS5003;58442;52.716;23.560;2022-09-16T08:55:17;4;4;4
70520;PMS5003;58442;52.716;23.560;2022-09-16T08:57:28;2;2;1
70520;PMS5003;58442;52.716;23.560;2022-09-16T08:59:39;1;1;1
70520;PMS5003;58442;52.716;23.560;2022-09-16T09:01:46;2;2;2
70520;PMS5003;58442;52.716;23.560;2022-09-16T09:04:02;2;2;1
70520;PMS5003;58442;52.716;23.560;2022-09-16T09:08:20;3;3;2
70520;PMS5003;58442;52.716;23.560;2022-09-16T09:10:35;3;3;2
70520;PMS5003;58442;52.716;23.560;2022-09-16T09:12:44;2;2;1
70520;PMS5003;58442;52.716;23.560;2022-09-16T09:19:50;3;3;2
70520;PMS5003;58442;52.716;23.560;2022-09-16T09:33:35;2;2;2
70520;PMS5003;58442;52.716;23.560;2022-09-16T09:38:22;2;2;2
70520;PMS5003;58442;52.716;23.560;2022-09-16T09:45:21;1;1;1
70520;PMS5003;58442;52.716;23.560;2022-09-16T09:51:56;2;2;2
70520;PMS5003;58442;52.716;23.560;2022-09-16T09:56:23;0;0;0
70520;PMS5003;58442;52.716;23.560;2022-09-16T10:00:49;1;1;1
70520;PMS5003;58442;52.716;23.560;2022-09-16T10:03:00;2;2;2
70520;PMS5003;58442;52.716;23.560;2022-09-16T10:07:20;0;0;0
70520;PMS5003;58442;52.716;23.560;2022-09-16T10:09:24;1;1;1
70520;PMS5003;58442;52.716;23.560;2022-09-16T10:11:32;0;0;0
70520;PMS5003;58442;52.716;23.560;2022-09-16T10:13:33;0;0;0
70520;PMS5003;58442;52.716;23.560;2022-09-16T10:15:34;2;2;2
70520;PMS5003;58442;52.716;23.560;2022-09-16T10:17:35;1;1;1
70520;PMS5003;58442;52.716;23.560;2022-09-16T10:19:52;1;1;1
70520;PMS5003;58442;52.716;23.560;2022-09-16T10:26:24;1;1;1
70520;PMS5003;58442;52.716;23.560;2022-09-16T10:28:26;1;1;1
70520;PMS5003;58442;52.716;23.560;2022-09-16T10:34:57;2;0;0
70520;PMS5003;58442;52.716;23.560;2022-09-16T10:37:02;1;1;1
70520;PMS5003;58442;52.716;23.560;2022-09-16T10:39:21;2;2;2
70520;PMS5003;58442;52.716;23.560;2022-09-16T10:41:27;0;0;0
70520;PMS5003;58442;52.716;23.560;2022-09-16T10:43:49;0;0;0
70520;PMS5003;58442;52.716;23.560;2022-09-16T10:46:05;1;1;1
70520;PMS5003;58442;52.716;23.560;2022-09-16T10:48:10;0;0;0
70520;PMS5003;58442;52.716;23.560;2022-09-16T10:50:16;2;2;1
70520;PMS5003;58442;52.716;23.560;2022-09-16T10:54:30;2;1;1
70520;PMS5003;58442;52.716;23.560;2022-09-16T10:59:00;1;1;1
70520;PMS5003;58442;52.716;23.560;2022-09-16T11:01:05;0;0;0
70520;PMS5003;58442;52.716;23.560;2022-09-16T11:10:02;2;2;2
70520;PMS5003;58442;52.716;23.560;2022-09-16T11:12:19;0;0;0
70520;PMS5003;58442;52.716;23.560;2022-09-16T11:21:38;1;1;1
70520;PMS5003;58442;52.716;23.560;2022-09-16T11:31:08;1;1;0
70520;PMS5003;58442;52.716;23.560;2022-09-16T11:40:27;1;1;0
70520;PMS5003;58442;52.716;23.560;2022-09-16T11:42:45;1;1;1
70520;PMS5003;58442;52.716;23.560;2022-09-16T11:44:55;0;0;0
70520;PMS5003;58442;52.716;23.560;2022-09-16T11:47:09;0;0;0
70520;PMS5003;58442;52.716;23.560;2022-09-16T11:54:06;2;2;1
70520;PMS5003;58442;52.716;23.560;2022-09-16T11:56:02;0;0;0
70520;PMS5003;58442;52.716;23.560;2022-09-16T12:00:21;0;0;0
70520;PMS5003;58442;52.716;23.560;2022-09-16T12:04:43;0;0;0
70520;PMS5003;58442;52.716;23.560;2022-09-16T12:09:11;0;0;0
70520;PMS5003;58442;52.716;23.560;2022-09-16T12:11:30;0;0;0
70520;PMS5003;58442;52.716;23.560;2022-09-16T12:13:37;0;0;0
70520;PMS5003;58442;52.716;23.560;2022-09-16T12:18:00;0;0;0
70520;PMS5003;58442;52.716;23.560;2022-09-16T12:22:25;0;0;0
70520;PMS5003;58442;52.716;23.560;2022-09-16T12:24:41;0;0;0
70520;PMS5003;58442;52.716;23.560;2022-09-16T12:26:56;1;1;1
70520;PMS5003;58442;52.716;23.560;2022-09-16T12:29:21;0;0;0
70520;PMS5003;58442;52.716;23.560;2022-09-16T12:31:39;1;1;1
70520;PMS5003;58442;52.716;23.560;2022-09-16T12:34:03;2;2;2
70520;PMS5003;58442;52.716;23.560;2022-09-16T12:36:02;1;1;1
70520;PMS5003;58442;52.716;23.560;2022-09-16T12:40:17;1;1;0
70520;PMS5003;58442;52.716;23.560;2022-09-16T13:01:19;0;0;0
70520;PMS5003;58442;52.716;23.560;2022-09-16T13:03:25;1;1;0
70520;PMS5003;58442;52.716;23.560;2022-09-16T13:05:31;0;0;0
70520;PMS5003;58442;52.716;23.560;2022-09-16T13:07:35;0;0;0
70520;PMS5003;58442;52.716;23.560;2022-09-16T13:09:37;0;0;0
70520;PMS5003;58442;52.716;23.560;2022-09-16T13:11:40;0;0;0
70520;PMS5003;58442;52.716;23.560;2022-09-16T13:13:45;0;0;0
70520;PMS5003;58442;52.716;23.560;2022-09-16T13:20:15;0;0;0
70520;PMS5003;58442;52.716;23.560;2022-09-16T13:22:20;0;0;0
70520;PMS5003;58442;52.716;23.560;2022-09-16T13:26:42;0;0;0
70520;PMS5003;58442;52.716;23.560;2022-09-16T13:28:45;1;1;1
70520;PMS5003;58442;52.716;23.560;2022-09-16T13:30:54;0;0;0
70520;PMS5003;58442;52.716;23.560;2022-09-16T13:32:56;0;0;0
70520;PMS5003;58442;52.716;23.560;2022-09-16T13:35:01;0;0;0
70520;PMS5003;58442;52.716;23.560;2022-09-16T13:37:22;0;0;0
70520;PMS5003;58442;52.716;23.560;2022-09-16T13:39:29;0;0;0
70520;PMS5003;58442;52.716;23.560;2022-09-16T13:41:32;0;0;0
70520;PMS5003;58442;52.716;23.560;2022-09-16T13:45:59;0;0;0
70520;PMS5003;58442;52.716;23.560;2022-09-16T13:48:25;0;0;0
70520;PMS5003;58442;52.716;23.560;2022-09-16T13:50:15;0;0;0
70520;PMS5003;58442;52.716;23.560;2022-09-16T13:54:41;0;0;0
70520;PMS5003;58442;52.716;23.560;2022-09-16T14:01:48;0;0;0
70520;PMS5003;58442;52.716;23.560;2022-09-16T14:04:07;0;0;0
70520;PMS5003;58442;52.716;23.560;2022-09-16T14:11:10;4;4;3
70520;PMS5003;58442;52.716;23.560;2022-09-16T14:13:18;3;3;2
70520;PMS5003;58442;52.716;23.560;2022-09-16T14:15:21;1;1;1
70520;PMS5003;58442;52.716;23.560;2022-09-16T14:17:25;0;0;0
70520;PMS5003;58442;52.716;23.560;2022-09-16T14:19:36;1;1;0
70520;PMS5003;58442;52.716;23.560;2022-09-16T14:26:29;0;0;0
70520;PMS5003;58442;52.716;23.560;2022-09-16T14:28:30;0;0;0
70520;PMS5003;58442;52.716;23.560;2022-09-16T14:30:31;1;1;1
70520;PMS5003;58442;52.716;23.560;2022-09-16T14:32:33;1;1;1
70520;PMS5003;58442;52.716;23.560;2022-09-16T14:34:44;0;0;0
70520;PMS5003;58442;52.716;23.560;2022-09-16T14:36:45;1;1;1
70520;PMS5003;58442;52.716;23.560;2022-09-16T14:38:48;1;1;1
70520;PMS5003;58442;52.716;23.560;2022-09-16T14:40:55;4;3;2
70520;PMS5003;58442;52.716;23.560;2022-09-16T14:43:00;0;0;0
70520;PMS5003;58442;52.716;23.560;2022-09-16T14:45:04;0;0;0
70520;PMS5003;58442;52.716;23.560;2022-09-16T14:49:18;1;1;1
70520;PMS5003;58442;52.716;23.560;2022-09-16T14:51:21;0;0;0
70520;PMS5003;58442;52.716;23.560;2022-09-16T14:53:35;1;1;1
70520;PMS5003;58442;52.716;23.560;2022-09-16T14:55:36;0;0;0
70520;PMS5003;58442;52.716;23.560;2022-09-16T14:57:39;0;0;0
70520;PMS5003;58442;52.716;23.560;2022-09-16T14:59:40;0;0;0
70520;PMS5003;58442;52.716;23.560;2022-09-16T15:01:49;0;0;0
70520;PMS5003;58442;52.716;23.560;2022-09-16T15:06:08;1;1;1
70520;PMS5003;58442;52.716;23.560;2022-09-16T15:08:20;0;0;0
70520;PMS5003;58442;52.716;23.560;2022-09-16T15:10:30;1;1;1
70520;PMS5003;58442;52.716;23.560;2022-09-16T15:12:33;0;0;0
70520;PMS5003;58442;52.716;23.560;2022-09-16T15:14:40;0;0;0
70520;PMS5003;58442;52.716;23.560;2022-09-16T15:16:43;0;0;0
70520;PMS5003;58442;52.716;23.560;2022-09-16T15:25:30;1;1;0
70520;PMS5003;58442;52.716;23.560;2022-09-16T15:27:33;0;0;0
70520;PMS5003;58442;52.716;23.560;2022-09-16T15:29:35;1;1;0
70520;PMS5003;58442;52.716;23.560;2022-09-16T15:31:46;0;0;0
70520;PMS5003;58442;52.716;23.560;2022-09-16T15:33:50;1;1;1
70520;PMS5003;58442;52.716;23.560;2022-09-16T15:35:51;0;0;0
70520;PMS5003;58442;52.716;23.560;2022-09-16T15:37:53;1;1;1
70520;PMS5003;58442;52.716;23.560;2022-09-16T15:39:55;1;1;1
70520;PMS5003;58442;52.716;23.560;2022-09-16T15:42:11;0;0;0
70520;PMS5003;58442;52.716;23.560;2022-09-16T15:44:22;0;0;0
70520;PMS5003;58442;52.716;23.560;2022-09-16T15:46:27;1;1;1
70520;PMS5003;58442;52.716;23.560;2022-09-16T15:50:59;2;2;1
70520;PMS5003;58442;52.716;23.560;2022-09-16T15:55:06;1;1;1
70520;PMS5003;58442;52.716;23.560;2022-09-16T15:57:21;0;0;0
70520;PMS5003;58442;52.716;23.560;2022-09-16T16:02:01;3;3;2
70520;PMS5003;58442;52.716;23.560;2022-09-16T16:04:08;0;0;0
70520;PMS5003;58442;52.716;23.560;2022-09-16T16:06:12;4;4;3
70520;PMS5003;58442;52.716;23.560;2022-09-16T16:08:14;3;3;2
70520;PMS5003;58442;52.716;23.560;2022-09-16T16:12:39;0;0;0
70520;PMS5003;58442;52.716;23.560;2022-09-16T16:14:41;2;2;2
70520;PMS5003;58442;52.716;23.560;2022-09-16T16:16:43;3;3;2
70520;PMS5003;58442;52.716;23.560;2022-09-16T16:18:44;1;1;1
70520;PMS5003;58442;52.716;23.560;2022-09-16T16:20:52;3;3;2
70520;PMS5003;58442;52.716;23.560;2022-09-16T16:22:53;0;0;0
70520;PMS5003;58442;52.716;23.560;2022-09-16T16:24:55;3;3;2
70520;PMS5003;58442;52.716;23.560;2022-09-16T16:26:56;2;2;2
70520;PMS5003;58442;52.716;23.560;2022-09-16T16:29:07;3;3;2
70520;PMS5003;58442;52.716;23.560;2022-09-16T16:31:12;2;2;2
70520;PMS5003;58442;52.716;23.560;2022-09-16T16:33:15;3;3;2
70520;PMS5003;58442;52.716;23.560;2022-09-16T16:35:16;2;2;2
70520;PMS5003;58442;52.716;23.560;2022-09-16T16:37:22;8;7;4
70520;PMS5003;58442;52.716;23.560;2022-09-16T16:39:24;22;16;6
70520;PMS5003;58442;52.716;23.560;2022-09-16T16:41:25;6;6;4
70520;PMS5003;58442;52.716;23.560;2022-09-16T16:43:27;6;6;4
70520;PMS5003;58442;52.716;23.560;2022-09-16T16:45:37;5;5;4
70520;PMS5003;58442;52.716;23.560;2022-09-16T16:47:37;4;4;3
70520;PMS5003;58442;52.716;23.560;2022-09-16T16:49:39;2;2;2
70520;PMS5003;58442;52.716;23.560;2022-09-16T16:51:41;1;1;1
70520;PMS5003;58442;52.716;23.560;2022-09-16T16:53:51;2;2;1
70520;PMS5003;58442;52.716;23.560;2022-09-16T16:55:52;1;1;1
70520;PMS5003;58442;52.716;23.560;2022-09-16T16:57:54;1;1;1
70520;PMS5003;58442;52.716;23.560;2022-09-16T16:59:55;1;1;1
70520;PMS5003;58442;52.716;23.560;2022-09-16T17:02:07;0;0;0
70520;PMS5003;58442;52.716;23.560;2022-09-16T17:04:11;1;1;0
70520;PMS5003;58442;52.716;23.560;2022-09-16T17:06:12;1;1;0
70520;PMS5003;58442;52.716;23.560;2022-09-16T17:08:13;0;0;0
70520;PMS5003;58442;52.716;23.560;2022-09-16T17:10:21;0;0;0
70520;PMS5003;58442;52.716;23.560;2022-09-16T17:12:22;1;1;1
70520;PMS5003;58442;52.716;23.560;2022-09-16T17:14:24;1;1;1
70520;PMS5003;58442;52.716;23.560;2022-09-16T17:16:27;0;0;0
70520;PMS5003;58442;52.716;23.560;2022-09-16T17:18:37;0;0;0
70520;PMS5003;58442;52.716;23.560;2022-09-16T17:20:40;0;0;0
70520;PMS5003;58442;52.716;23.560;2022-09-16T17:22:41;0;0;0
70520;PMS5003;58442;52.716;23.560;2022-09-16T17:24:42;0;0;0
70520;PMS5003;58442;52.716;23.560;2022-09-16T17:26:50;2;2;1
70520;PMS5003;58442;52.716;23.560;2022-09-16T17:28:52;0;0;0
70520;PMS5003;58442;52.716;23.560;2022-09-16T17:30:57;1;1;1
70520;PMS5003;58442;52.716;23.560;2022-09-16T17:32:58;0;0;0
70520;PMS5003;58442;52.716;23.560;2022-09-16T17:35:05;0;0;0
70520;PMS5003;58442;52.716;23.560;2022-09-16T17:37:07;1;1;0
70520;PMS5003;58442;52.716;23.560;2022-09-16T17:39:13;0;0;0
70520;PMS5003;58442;52.716;23.560;2022-09-16T17:41:16;1;1;1
70520;PMS5003;58442;52.716;23.560;2022-09-16T17:43:20;1;1;1